Time;durP1;ratioP1;P1;durP2;ratioP2;P2;SDS_P1;SDS_P2;PMS_P1;PMS_P2;Temp;Humidity;BMP_temperature;BMP_pressure;BME280_temperature;BME280_humidity;BME280_pressure;Samples;Min_cycle;Max_cycle;Signal;HPM_P1;HPM_P2
2022/10/08 00:00:01;;;;;;;42.07;17.70;;;8.30;99.90;;;;;;5014559;28;20698;-85
2022/10/08 00:02:28;;;;;;;28.73;14.97;;;8.30;99.90;;;;;;5018319;28;20307;-84
2022/10/08 00:04:54;;;;;;;35.40;15.77;;;8.40;99.90;;;;;;5018356;28;20256;-85
2022/10/08 00:07:20;;;;;;;34.10;14.50;;;8.50;99.90;;;;;;5024609;28;20235;-84
2022/10/08 00:09:45;;;;;;;27.13;14.67;;;8.50;99.90;;;;;;5009058;28;20186;-84
2022/10/08 00:12:11;;;;;;;29.10;14.23;;;8.50;99.90;;;;;;5025568;28;20185;-84
2022/10/08 00:14:39;;;;;;;28.17;14.67;;;8.50;99.90;;;;;;5025048;28;20196;-84
2022/10/08 00:17:05;;;;;;;27.43;14.43;;;8.40;99.90;;;;;;5007909;28;20181;-84
2022/10/08 00:19:30;;;;;;;28.57;12.97;;;8.50;99.90;;;;;;5007718;28;20704;-84
2022/10/08 00:21:56;;;;;;;37.40;14.47;;;8.50;99.90;;;;;;5024029;28;20196;-84
2022/10/08 00:24:22;;;;;;;31.80;14.50;;;8.50;99.90;;;;;;5016032;28;20243;-84
2022/10/08 00:26:49;;;;;;;27.47;13.00;;;8.50;99.90;;;;;;5014150;28;20255;-84
2022/10/08 00:29:17;;;;;;;26.67;12.50;;;8.50;99.90;;;;;;5013934;28;20181;-84
2022/10/08 00:31:44;;;;;;;30.27;12.83;;;8.50;99.90;;;;;;5013324;28;20697;-84
2022/10/08 00:34:13;;;;;;;18.77;8.63;;;8.50;99.90;;;;;;5012354;28;20232;-84
2022/10/08 00:36:39;;;;;;;13.57;8.13;;;8.50;99.90;;;;;;5012879;28;20205;-84
2022/10/08 00:39:12;;;;;;;17.83;9.77;;;8.60;99.90;;;;;;5013892;28;20184;-84
2022/10/08 00:41:38;;;;;;;21.67;10.50;;;8.80;99.90;;;;;;5012850;28;20237;-84
2022/10/08 00:44:41;;;;;;;25.03;10.17;;;8.80;99.90;;;;;;5012547;28;20310;-88
2022/10/08 00:47:35;;;;;;;25.03;10.30;;;8.80;99.90;;;;;;5013630;28;20212;-84
2022/10/08 00:50:07;;;;;;;23.93;11.90;;;8.80;99.90;;;;;;5012501;28;20185;-84
2022/10/08 00:52:41;;;;;;;27.33;11.53;;;8.70;99.90;;;;;;5013816;28;20177;-84
2022/10/08 00:55:08;;;;;;;20.53;10.87;;;8.70;99.90;;;;;;5013396;28;20165;-86
2022/10/08 00:57:36;;;;;;;16.77;9.57;;;8.70;99.90;;;;;;5012401;28;20177;-84
2022/10/08 01:00:32;;;;;;;15.13;8.57;;;8.70;99.90;;;;;;5013845;28;20657;-84
2022/10/08 01:02:58;;;;;;;20.13;10.33;;;8.70;99.90;;;;;;5004838;28;20205;-84
2022/10/08 01:05:46;;;;;;;17.93;9.00;;;8.80;99.90;;;;;;5012127;28;20248;-84
2022/10/08 01:08:22;;;;;;;16.10;8.37;;;8.80;99.90;;;;;;5013341;28;20170;-84
2022/10/08 01:11:41;;;;;;;17.67;9.30;;;8.80;99.90;;;;;;5013761;28;20173;-84
2022/10/08 01:14:34;;;;;;;17.93;9.17;;;8.80;99.90;;;;;;4972162;28;20648;-85
2022/10/08 01:17:20;;;;;;;20.27;8.33;;;8.80;99.90;;;;;;4972645;28;20232;-84
2022/10/08 01:20:06;;;;;;;14.47;7.97;;;8.80;99.90;;;;;;5004804;28;20200;-84
2022/10/08 01:22:47;;;;;;;11.27;7.33;;;8.80;99.90;;;;;;5013791;28;20253;-84
2022/10/08 01:25:39;;;;;;;16.97;7.63;;;8.80;99.90;;;;;;5013776;28;20726;-85
2022/10/08 01:28:08;;;;;;;16.47;8.23;;;8.80;99.90;;;;;;5013596;28;20185;-84
2022/10/08 01:30:38;;;;;;;12.97;7.57;;;8.80;99.90;;;;;;5013762;28;20178;-84
2022/10/08 01:33:25;;;;;;;12.13;7.43;;;8.70;99.90;;;;;;5013555;28;20232;-84
2022/10/08 01:35:56;;;;;;;20.17;8.07;;;8.70;99.90;;;;;;5013476;28;20205;-84
2022/10/08 01:38:25;;;;;;;11.67;6.60;;;8.70;99.90;;;;;;5013521;28;20165;-84
2022/10/08 01:40:57;;;;;;;14.73;6.87;;;8.70;99.90;;;;;;5012157;28;20255;-85
2022/10/08 01:43:25;;;;;;;10.97;6.73;;;8.70;99.90;;;;;;5014310;28;20169;-84
2022/10/08 01:45:57;;;;;;;14.03;6.87;;;8.60;99.90;;;;;;5016833;28;20205;-84
2022/10/08 01:48:28;;;;;;;14.07;6.83;;;8.60;99.90;;;;;;5016613;28;20177;-85
2022/10/08 01:51:01;;;;;;;13.37;6.73;;;8.60;99.90;;;;;;5017182;28;20615;-84
2022/10/08 01:53:33;;;;;;;9.67;5.97;;;8.60;99.90;;;;;;5018107;28;20166;-84
2022/10/08 01:56:03;;;;;;;13.30;6.33;;;8.50;99.90;;;;;;5018462;28;20169;-84
2022/10/08 01:58:42;;;;;;;11.70;6.70;;;8.50;99.90;;;;;;5017950;28;20172;-84
2022/10/08 02:01:22;;;;;;;11.93;6.90;;;8.50;99.90;;;;;;5024188;28;20161;-84
2022/10/08 02:06:36;;;;;;;10.40;7.00;;;8.40;99.90;;;;;;5040028;28;20216;-84
2022/10/08 02:09:02;;;;;;;14.13;5.93;;;8.40;99.90;;;;;;5040636;28;20161;-84
2022/10/08 02:11:28;;;;;;;9.40;5.50;;;8.30;99.90;;;;;;5029705;28;20189;-84
2022/10/08 02:13:54;;;;;;;13.77;6.03;;;8.30;99.90;;;;;;5018014;28;20181;-84
2022/10/08 02:16:28;;;;;;;13.70;5.90;;;8.30;99.90;;;;;;5008730;28;20208;-86
2022/10/08 02:19:14;;;;;;;12.87;5.73;;;8.30;99.90;;;;;;5040535;28;20173;-85
2022/10/08 02:21:42;;;;;;;9.57;5.90;;;8.30;99.90;;;;;;5039765;28;20142;-84
2022/10/08 02:24:15;;;;;;;9.97;6.53;;;8.30;99.90;;;;;;5034429;28;20181;-84
2022/10/08 02:26:48;;;;;;;8.87;5.33;;;8.30;99.90;;;;;;5016686;28;20235;-84
2022/10/08 02:29:32;;;;;;;12.63;5.77;;;8.20;99.90;;;;;;5015508;28;20546;-84
2022/10/08 02:32:18;;;;;;;10.67;6.70;;;8.20;99.90;;;;;;5017095;28;20196;-84
2022/10/08 02:34:54;;;;;;;22.83;6.87;;;8.20;99.90;;;;;;5016572;28;20641;-84
2022/10/08 02:37:26;;;;;;;11.40;5.47;;;8.20;99.90;;;;;;5016492;28;20157;-84
2022/10/08 02:40:00;;;;;;;9.97;5.43;;;8.20;99.90;;;;;;5016778;28;20162;-84
2022/10/08 02:42:30;;;;;;;11.77;7.43;;;8.10;99.90;;;;;;5015080;28;20244;-84
2022/10/08 02:45:02;;;;;;;8.20;5.37;;;8.10;99.90;;;;;;5015412;28;20177;-84
2022/10/08 02:47:31;;;;;;;9.77;6.03;;;8.10;99.90;;;;;;5016125;28;20178;-85
2022/10/08 02:50:01;;;;;;;10.47;5.33;;;8.00;99.90;;;;;;5016396;28;20181;-84
2022/10/08 02:52:34;;;;;;;17.03;6.00;;;8.00;99.90;;;;;;5015740;28;20169;-84
2022/10/08 02:55:06;;;;;;;11.57;7.47;;;7.90;99.90;;;;;;5015715;28;20169;-84
2022/10/08 02:57:59;;;;;;;13.13;7.63;;;7.90;99.90;;;;;;5014065;28;20177;-84
2022/10/08 03:00:31;;;;;;;19.97;9.67;;;7.90;99.90;;;;;;5013915;28;20627;-85
2022/10/08 03:03:24;;;;;;;18.77;7.93;;;7.90;99.90;;;;;;5015313;28;20166;-84
2022/10/08 03:05:51;;;;;;;16.43;7.37;;;7.90;99.90;;;;;;5015003;28;20189;-84
2022/10/08 03:08:18;;;;;;;14.50;7.30;;;7.90;99.90;;;;;;5014072;28;20189;-84
2022/10/08 03:10:44;;;;;;;12.53;8.03;;;7.90;99.90;;;;;;5014616;28;20178;-84
2022/10/08 03:13:11;;;;;;;12.60;7.47;;;7.90;99.90;;;;;;4998001;28;20264;-84
2022/10/08 03:15:39;;;;;;;13.67;7.93;;;7.90;99.90;;;;;;5013684;28;20189;-84
2022/10/08 03:18:09;;;;;;;13.90;8.23;;;7.90;99.90;;;;;;5014961;28;20634;-84
2022/10/08 03:20:48;;;;;;;13.70;7.30;;;8.00;99.90;;;;;;5015156;28;20259;-85
2022/10/08 03:23:16;;;;;;;9.00;6.37;;;8.00;99.90;;;;;;5014994;28;20173;-84
2022/10/08 03:25:42;;;;;;;15.70;6.80;;;8.00;99.90;;;;;;5014554;28;20598;-84
2022/10/08 03:28:08;;;;;;;14.50;7.37;;;8.10;99.90;;;;;;5014514;28;20181;-84
2022/10/08 03:30:33;;;;;;;14.73;9.40;;;8.20;99.90;;;;;;5013659;28;20177;-84
2022/10/08 03:32:59;;;;;;;16.47;7.73;;;8.20;99.90;;;;;;5013297;28;20239;-84
2022/10/08 03:35:25;;;;;;;15.97;7.57;;;8.20;99.90;;;;;;5016123;28;20197;-86
2022/10/08 03:37:52;;;;;;;14.23;6.77;;;8.30;99.90;;;;;;5020705;28;20264;-84
2022/10/08 03:40:18;;;;;;;10.13;5.87;;;8.40;99.90;;;;;;5023147;28;20191;-85
2022/10/08 03:42:44;;;;;;;10.17;5.87;;;8.50;99.90;;;;;;5020836;28;20181;-84
2022/10/08 03:45:09;;;;;;;10.77;6.50;;;8.60;99.90;;;;;;5022663;28;20597;-85
2022/10/08 03:47:35;;;;;;;7.17;4.37;;;8.70;99.90;;;;;;5022766;28;20652;-85
2022/10/08 03:50:01;;;;;;;8.77;5.37;;;8.80;99.90;;;;;;5023831;28;20181;-84
2022/10/08 03:52:28;;;;;;;7.97;5.63;;;9.00;99.90;;;;;;5025714;28;20205;-86
2022/10/08 03:54:53;;;;;;;11.00;6.53;;;9.10;99.90;;;;;;5007572;28;20231;-86
2022/10/08 03:57:19;;;;;;;10.77;6.53;;;9.20;99.90;;;;;;5006980;28;20188;-84
2022/10/08 03:59:44;;;;;;;8.53;5.10;;;9.30;99.90;;;;;;5017655;28;20247;-87
2022/10/08 04:02:10;;;;;;;7.93;5.87;;;9.40;99.90;;;;;;5020933;28;20186;-85
2022/10/08 04:04:36;;;;;;;9.10;5.33;;;9.50;99.90;;;;;;5021389;28;20275;-84
2022/10/08 04:07:01;;;;;;;9.03;5.63;;;9.50;99.90;;;;;;5023565;28;20284;-85
2022/10/08 04:09:27;;;;;;;14.87;6.30;;;9.60;99.90;;;;;;5021051;28;20468;-86
2022/10/08 04:11:53;;;;;;;8.77;6.17;;;9.60;99.90;;;;;;5012723;28;20648;-85
2022/10/08 04:14:18;;;;;;;8.97;6.33;;;9.50;99.90;;;;;;5012821;28;20181;-84
2022/10/08 04:16:44;;;;;;;10.13;6.73;;;9.50;99.90;;;;;;5013879;28;20196;-84
2022/10/08 04:19:10;;;;;;;13.80;6.07;;;9.40;99.90;;;;;;5012855;28;20216;-85
2022/10/08 04:21:36;;;;;;;9.13;5.05;;;9.30;99.90;;;;;;5012401;28;20181;-85
2022/10/08 04:24:02;;;;;;;9.15;6.05;;;9.20;99.90;;;;;;5014161;28;20188;-84
2022/10/08 04:26:27;;;;;;;8.53;4.80;;;9.10;99.90;;;;;;5012707;28;20616;-84
2022/10/08 04:28:53;;;;;;;11.17;5.97;;;9.00;99.90;;;;;;4996310;28;20212;-85
2022/10/08 04:31:23;;;;;;;9.20;6.10;;;9.00;99.90;;;;;;5012513;28;20550;-84
2022/10/08 04:33:50;;;;;;;10.67;5.77;;;9.00;99.90;;;;;;5013403;28;20310;-83
2022/10/08 04:36:21;;;;;;;8.13;5.43;;;9.00;99.90;;;;;;5012507;28;20189;-85
2022/10/08 04:38:47;;;;;;;12.80;6.90;;;8.90;99.90;;;;;;5012241;28;20183;-84
2022/10/08 04:41:24;;;;;;;7.43;4.70;;;8.90;99.90;;;;;;4996081;28;20185;-84
2022/10/08 04:43:52;;;;;;;14.53;6.80;;;9.00;99.90;;;;;;5013174;28;20205;-84
2022/10/08 04:46:20;;;;;;;9.67;5.57;;;9.00;99.90;;;;;;5013650;28;20213;-84
2022/10/08 04:48:51;;;;;;;10.40;5.40;;;9.00;99.90;;;;;;5012183;28;20279;-85
2022/10/08 04:51:18;;;;;;;12.03;6.43;;;9.10;99.90;;;;;;5013628;28;20598;-84
2022/10/08 04:53:44;;;;;;;11.30;6.07;;;9.10;99.90;;;;;;5013305;28;20216;-84
2022/10/08 04:56:15;;;;;;;7.93;5.20;;;9.10;99.90;;;;;;5013400;28;20615;-85
2022/10/08 04:58:42;;;;;;;11.47;6.70;;;9.10;99.90;;;;;;5012092;28;20173;-85
2022/10/08 05:01:10;;;;;;;11.83;6.43;;;9.10;99.90;;;;;;5013469;28;20244;-85
2022/10/08 05:03:44;;;;;;;11.63;6.10;;;9.00;99.90;;;;;;5013418;28;20181;-85
2022/10/08 05:06:10;;;;;;;8.80;5.50;;;9.00;99.90;;;;;;5012345;28;20208;-84
2022/10/08 05:08:36;;;;;;;16.80;6.30;;;9.00;99.90;;;;;;5013117;28;20185;-85
2022/10/08 05:11:02;;;;;;;9.67;5.50;;;9.00;99.90;;;;;;5011967;28;20548;-86
2022/10/08 05:13:28;;;;;;;9.20;5.97;;;9.00;99.90;;;;;;5013143;28;20178;-86
2022/10/08 05:15:53;;;;;;;10.60;6.67;;;9.00;99.90;;;;;;4994792;28;20173;-85
2022/10/08 05:18:19;;;;;;;9.37;6.10;;;9.00;99.90;;;;;;5014140;28;20216;-86
2022/10/08 05:20:45;;;;;;;11.47;7.07;;;9.00;99.90;;;;;;4999063;28;20177;-86
2022/10/08 05:23:11;;;;;;;14.17;6.87;;;9.00;99.90;;;;;;5015173;28;20635;-86
2022/10/08 05:25:36;;;;;;;20.63;8.60;;;9.10;99.90;;;;;;5016123;28;20205;-89
2022/10/08 05:28:03;;;;;;;10.97;6.93;;;9.10;99.90;;;;;;5015360;28;20188;-86
2022/10/08 05:30:28;;;;;;;16.47;7.37;;;9.20;99.90;;;;;;5017039;28;20187;-87
2022/10/08 05:32:54;;;;;;;12.97;6.67;;;9.20;99.90;;;;;;4998503;28;20316;-87
2022/10/08 05:35:20;;;;;;;12.10;7.33;;;9.30;99.90;;;;;;5016560;28;20235;-89
2022/10/08 05:37:45;;;;;;;16.87;7.13;;;9.40;99.90;;;;;;4998457;28;20217;-86
2022/10/08 05:40:11;;;;;;;13.03;7.73;;;9.40;99.90;;;;;;5014962;28;20654;-86
2022/10/08 05:42:37;;;;;;;12.63;6.60;;;9.40;99.90;;;;;;4998809;28;20189;-86
2022/10/08 05:45:03;;;;;;;14.30;6.83;;;9.50;99.90;;;;;;5014651;28;20188;-86
2022/10/08 05:47:29;;;;;;;10.15;6.47;;;9.60;99.90;;;;;;4995283;28;20282;-86
2022/10/08 05:49:54;;;;;;;14.20;8.00;;;9.70;99.90;;;;;;5003143;28;20269;-86
2022/10/08 05:52:20;;;;;;;12.43;7.03;;;9.80;99.90;;;;;;4998715;28;20642;-85
2022/10/08 05:54:46;;;;;;;10.87;6.60;;;9.90;99.90;;;;;;5015950;28;20593;-86
2022/10/08 05:57:11;;;;;;;11.70;5.90;;;10.00;99.90;;;;;;4982319;28;20193;-85
2022/10/08 05:59:37;;;;;;;12.73;7.30;;;10.10;99.90;;;;;;5017040;28;20185;-87
2022/10/08 06:02:03;;;;;;;9.45;5.93;;;10.20;99.90;;;;;;5021174;28;20199;-86
2022/10/08 06:04:29;;;;;;;13.50;7.18;;;10.40;99.90;;;;;;5005557;28;20187;-88
2022/10/08 06:06:54;;;;;;;14.45;6.93;;;10.50;99.90;;;;;;5010486;28;20278;-86
2022/10/08 06:09:20;;;;;;;11.45;6.28;;;10.50;99.90;;;;;;5020466;28;20257;-86
2022/10/08 06:11:47;;;;;;;9.38;5.25;;;10.60;99.90;;;;;;5019170;28;20177;-87
2022/10/08 06:14:15;;;;;;;10.68;5.18;;;10.80;99.90;;;;;;5034059;28;20177;-87
2022/10/08 06:16:41;;;;;;;14.93;6.43;;;10.90;99.90;;;;;;5015936;28;20196;-89
2022/10/08 06:19:08;;;;;;;8.80;5.18;;;11.10;99.90;;;;;;4998648;28;20181;-87
2022/10/08 06:21:34;;;;;;;11.52;6.20;;;11.20;99.90;;;;;;5014979;28;20741;-87
2022/10/08 06:24:04;;;;;;;15.85;7.32;;;11.30;99.90;;;;;;5014815;28;20185;-87
2022/10/08 06:26:36;;;;;;;9.43;5.68;;;11.40;99.90;;;;;;5016134;28;20209;-87
2022/10/08 06:29:07;;;;;;;12.75;6.13;;;11.50;99.90;;;;;;5014013;28;20296;-88
2022/10/08 06:31:34;;;;;;;10.88;6.10;;;11.60;99.90;;;;;;5014684;28;20181;-87
2022/10/08 06:34:01;;;;;;;12.75;6.50;;;11.70;99.90;;;;;;5014520;28;20240;-87
2022/10/08 06:36:27;;;;;;;14.25;7.22;;;11.80;99.90;;;;;;5014655;28;20257;-87
2022/10/08 06:38:55;;;;;;;11.25;6.57;;;11.90;99.90;;;;;;5015841;28;20196;-89
2022/10/08 06:41:22;;;;;;;13.48;5.70;;;12.10;99.90;;;;;;5014601;28;20177;-88
2022/10/08 06:43:48;;;;;;;10.93;5.47;;;12.10;99.90;;;;;;5014764;28;20286;-88
2022/10/08 06:46:14;;;;;;;11.50;5.82;;;12.30;99.90;;;;;;5014324;28;20209;-87
2022/10/08 06:48:40;;;;;;;13.57;6.05;;;11.70;99.90;;;;;;5014834;28;20173;-88
2022/10/08 06:51:11;;;;;;;10.85;5.90;;;12.40;99.90;;;;;;4998682;28;20522;-89
2022/10/08 06:53:38;;;;;;;9.73;5.45;;;12.60;99.90;;;;;;5016861;28;20180;-86
2022/10/08 06:56:06;;;;;;;9.70;5.38;;;12.70;99.90;;;;;;5016648;28;20213;-86
2022/10/08 06:58:34;;;;;;;10.35;6.03;;;12.80;99.90;;;;;;5015626;28;20189;-87
2022/10/08 07:01:08;;;;;;;13.20;6.75;;;12.90;99.90;;;;;;5015490;28;20173;-87
2022/10/08 07:03:35;;;;;;;9.48;4.85;;;12.90;99.90;;;;;;5015566;28;20176;-88
2022/10/08 07:06:02;;;;;;;13.82;6.22;;;13.00;99.90;;;;;;5015135;28;20269;-87
2022/10/08 07:08:29;;;;;;;8.77;5.18;;;13.10;99.90;;;;;;5015331;28;20186;-88
2022/10/08 07:10:55;;;;;;;8.75;5.18;;;13.20;99.90;;;;;;5016050;28;20251;-89
2022/10/08 07:13:21;;;;;;;10.70;5.85;;;13.30;99.90;;;;;;5016152;28;20208;-89
2022/10/08 07:15:46;;;;;;;7.25;4.63;;;13.40;99.90;;;;;;5017304;28;20188;-87
2022/10/08 07:18:12;;;;;;;9.00;4.80;;;13.50;99.90;;;;;;5015243;28;20181;-88
2022/10/08 07:33:41;;;;;;;6.35;4.15;;;14.40;99.90;;;;;;5940335;22;20235;-90
2022/10/08 07:36:15;;;;;;;8.13;4.03;;;14.40;99.90;;;;;;4998108;28;20193;-89
2022/10/08 07:46:20;;;;;;;8.57;3.72;;;14.40;99.90;;;;;;5074478;28;20270;-88
2022/10/08 07:48:45;;;;;;;7.95;3.80;;;14.50;99.90;;;;;;5075588;28;20509;-88
2022/10/08 07:51:16;;;;;;;5.30;3.80;;;14.60;99.90;;;;;;5056785;28;20221;-88
2022/10/08 07:53:42;;;;;;;4.90;3.38;;;14.70;99.90;;;;;;5056664;28;20179;-88
2022/10/08 07:56:10;;;;;;;5.80;4.18;;;14.80;99.90;;;;;;5056195;28;20187;-88
2022/10/08 07:58:37;;;;;;;4.70;3.40;;;14.90;99.90;;;;;;5058669;28;20229;-89
2022/10/08 08:01:05;;;;;;;6.03;3.33;;;15.00;99.90;;;;;;5077731;28;20646;-88
2022/10/08 08:03:31;;;;;;;5.32;3.55;;;15.10;99.90;;;;;;5074685;28;20254;-89
2022/10/08 08:06:08;;;;;;;5.90;3.53;;;15.20;99.90;;;;;;5056548;28;20341;-88
2022/10/08 08:08:35;;;;;;;4.57;3.55;;;15.20;99.90;;;;;;5040827;28;20207;-88
2022/10/08 08:11:03;;;;;;;6.10;3.50;;;15.40;99.90;;;;;;5055848;28;20268;-89
2022/10/08 08:13:31;;;;;;;6.32;3.75;;;15.40;99.90;;;;;;5055664;28;20533;-90
2022/10/08 08:16:05;;;;;;;5.15;3.28;;;15.50;99.90;;;;;;5056214;28;20190;-88
2022/10/08 08:18:34;;;;;;;5.55;3.28;;;15.70;99.90;;;;;;5073766;28;20155;-88
2022/10/08 08:21:06;;;;;;;7.20;3.90;;;15.70;99.90;;;;;;5073732;28;20254;-89
2022/10/08 08:23:34;;;;;;;4.90;3.45;;;15.90;99.90;;;;;;5073727;28;20207;-88
2022/10/08 08:26:01;;;;;;;8.13;4.00;;;15.90;99.90;;;;;;5073619;28;20202;-89
2022/10/08 08:28:27;;;;;;;5.70;3.75;;;16.10;99.90;;;;;;5073442;28;20182;-89
2022/10/08 08:30:54;;;;;;;6.60;3.60;;;16.10;99.90;;;;;;5074066;28;20175;-90
2022/10/08 08:33:20;;;;;;;5.15;4.03;;;16.20;99.90;;;;;;5055512;28;20175;-89
2022/10/08 08:35:54;;;;;;;5.88;3.90;;;16.60;99.90;;;;;;5073417;28;20190;-90
2022/10/08 08:38:20;;;;;;;4.05;2.72;;;16.30;99.90;;;;;;5039832;28;20183;-90
2022/10/08 08:40:46;;;;;;;6.85;3.88;;;16.30;99.90;;;;;;5038883;28;20261;-86
2022/10/08 08:43:11;;;;;;;8.07;3.72;;;16.30;99.90;;;;;;5055624;28;20175;-90
2022/10/08 08:45:37;;;;;;;5.43;3.22;;;16.30;99.90;;;;;;5073585;28;20696;-90
2022/10/08 08:48:16;;;;;;;4.93;2.70;;;16.50;99.90;;;;;;5055817;28;20175;-89
2022/10/08 08:50:44;;;;;;;7.05;3.28;;;16.70;99.90;;;;;;5073308;28;20252;-88
2022/10/08 08:53:10;;;;;;;5.07;3.00;;;16.70;99.90;;;;;;5077743;28;20234;-92
2022/10/08 08:55:42;;;;;;;5.25;3.45;;;16.70;99.90;;;;;;5062354;28;20277;-90
2022/10/08 08:58:18;;;;;;;5.97;3.65;;;16.80;99.90;;;;;;5080216;28;20266;-89
2022/10/08 09:01:11;;;;;;;3.72;3.10;;;16.80;99.90;;;;;;5062499;28;20199;-90
2022/10/08 09:03:42;;;;;;;7.47;3.30;;;17.00;99.90;;;;;;5050476;28;20183;-91
2022/10/08 09:06:13;;;;;;;3.67;2.42;;;17.00;99.90;;;;;;5063350;28;20325;-90
2022/10/08 09:09:11;;;;;;;4.63;3.47;;;17.00;99.90;;;;;;5079105;28;20174;-90
2022/10/08 09:11:38;;;;;;;3.55;2.85;;;17.10;99.90;;;;;;5090680;28;20222;-90
2022/10/08 09:14:10;;;;;;;6.13;3.60;;;17.20;99.90;;;;;;5079993;28;20519;-88
2022/10/08 09:16:37;;;;;;;4.22;2.80;;;17.20;99.90;;;;;;5076674;28;20179;-90
2022/10/08 09:19:03;;;;;;;13.25;4.40;;;17.40;99.90;;;;;;5072824;28;20175;-90
2022/10/08 09:21:33;;;;;;;4.43;3.10;;;17.40;99.90;;;;;;5067320;28;20175;-89
2022/10/08 09:24:00;;;;;;;4.53;3.03;;;17.60;99.90;;;;;;5050941;28;20615;-90
2022/10/08 09:26:30;;;;;;;4.50;3.03;;;17.70;99.90;;;;;;5082301;28;20214;-89
2022/10/08 09:28:57;;;;;;;6.10;3.47;;;17.70;99.90;;;;;;5081572;28;20182;-91
2022/10/08 09:31:46;;;;;;;9.30;4.10;;;17.80;99.90;;;;;;5063600;28;20187;-91
2022/10/08 09:34:14;;;;;;;8.55;3.70;;;17.90;99.90;;;;;;5062474;28;20182;-90
2022/10/08 09:37:00;;;;;;;4.90;3.17;;;17.90;99.90;;;;;;5079920;28;20211;-89
2022/10/08 09:39:27;;;;;;;4.47;2.85;;;18.00;99.90;;;;;;5062170;28;20191;-91
2022/10/08 09:42:16;;;;;;;5.28;3.50;;;18.00;99.90;;;;;;5080558;28;20715;-87
2022/10/08 09:44:51;;;;;;;5.85;3.63;;;18.10;99.90;;;;;;5070794;28;20230;-90
2022/10/08 09:47:22;;;;;;;8.98;3.63;;;18.30;99.90;;;;;;5085147;28;20193;-93
2022/10/08 09:50:17;;;;;;;4.82;2.92;;;18.30;99.90;;;;;;5070606;28;20183;-89
2022/10/08 09:52:45;;;;;;;3.55;2.88;;;18.40;99.90;;;;;;5059359;28;20235;-87
2022/10/08 09:55:34;;;;;;;9.13;3.75;;;18.50;99.90;;;;;;5087274;28;20183;-90
2022/10/08 09:58:01;;;;;;;6.07;3.42;;;18.40;99.90;;;;;;5086423;28;20261;-87
2022/10/08 10:00:36;;;;;;;7.22;3.53;;;18.40;99.90;;;;;;5086720;28;20214;-92
2022/10/08 10:03:05;;;;;;;5.85;2.97;;;18.50;99.90;;;;;;5085382;28;20201;-89
2022/10/08 10:05:34;;;;;;;5.55;3.28;;;18.60;99.90;;;;;;5078470;28;20203;-88
2022/10/08 10:08:00;;;;;;;8.40;3.70;;;18.70;99.90;;;;;;5097238;28;20193;-90
2022/10/08 10:10:32;;;;;;;6.22;3.42;;;18.90;99.90;;;;;;5066531;28;20186;-89
2022/10/08 10:13:12;;;;;;;5.85;3.20;;;18.80;99.90;;;;;;5100305;28;20211;-89
2022/10/08 10:15:48;;;;;;;4.75;2.90;;;18.90;99.90;;;;;;5081358;28;20175;-91
2022/10/08 10:18:21;;;;;;;5.45;3.28;;;19.10;99.90;;;;;;5058172;28;20515;-89
2022/10/08 10:21:09;;;;;;;4.82;3.33;;;19.40;99.90;;;;;;5075839;28;20170;-90
2022/10/08 10:23:49;;;;;;;5.57;3.58;;;19.60;99.90;;;;;;5075834;28;20167;-90
2022/10/08 10:26:26;;;;;;;4.95;2.78;;;19.60;99.90;;;;;;5057329;28;20238;-89
2022/10/08 10:28:58;;;;;;;5.25;3.40;;;19.60;99.90;;;;;;5058188;28;20179;-88
2022/10/08 10:31:37;;;;;;;5.72;3.22;;;19.60;99.90;;;;;;5057741;28;20201;-88
2022/10/08 10:34:20;;;;;;;4.20;3.00;;;19.60;99.90;;;;;;5075573;28;20166;-90
2022/10/08 10:36:54;;;;;;;5.30;3.30;;;19.60;99.90;;;;;;5057910;28;20186;-89
2022/10/08 10:39:28;;;;;;;4.70;3.30;;;19.70;99.90;;;;;;5057998;28;20179;-89
2022/10/08 10:42:06;;;;;;;6.65;3.60;;;19.60;99.90;;;;;;5055198;28;20190;-94
2022/10/08 10:44:56;;;;;;;6.45;3.90;;;19.60;99.90;;;;;;5075202;28;20223;-89
2022/10/08 10:47:30;;;;;;;4.40;3.00;;;19.50;99.90;;;;;;5048059;28;20321;-91
2022/10/08 10:50:00;;;;;;;5.10;3.05;;;19.40;99.90;;;;;;5075386;28;20213;-90
2022/10/08 10:53:13;;;;;;;5.90;3.13;;;19.40;99.90;;;;;;5057236;28;20643;-90
2022/10/08 10:55:43;;;;;;;4.07;3.13;;;19.40;99.90;;;;;;4993263;28;20615;-89
2022/10/08 10:58:24;;;;;;;6.93;3.13;;;19.50;99.90;;;;;;5066455;28;20195;-91
2022/10/08 11:01:07;;;;;;;5.68;2.70;;;19.30;99.90;;;;;;5057030;28;20181;-90
2022/10/08 11:03:39;;;;;;;3.60;3.13;;;19.40;99.90;;;;;;5061633;28;20187;-91
2022/10/08 11:06:22;;;;;;;5.75;3.20;;;19.50;99.90;;;;;;5074706;28;20282;-88
2022/10/08 11:09:22;;;;;;;6.30;3.53;;;19.40;99.90;;;;;;5057172;28;20178;-89
2022/10/08 11:11:53;;;;;;;7.93;3.55;;;19.40;99.90;;;;;;5026120;28;20223;-90
2022/10/08 11:14:30;;;;;;;5.35;3.63;;;19.40;99.90;;;;;;5056222;28;20226;-91
2022/10/08 11:17:28;;;;;;;6.57;4.00;;;19.50;99.90;;;;;;5056254;28;20266;-89
2022/10/08 11:20:12;;;;;;;7.30;4.00;;;19.50;99.90;;;;;;5067326;28;20653;-89
2022/10/08 11:22:42;;;;;;;8.50;3.30;;;19.60;99.90;;;;;;5080345;28;20198;-89
2022/10/08 11:25:20;;;;;;;8.73;3.55;;;19.60;99.90;;;;;;5061522;28;20178;-88
2022/10/08 11:28:06;;;;;;;8.63;2.33;;;19.60;99.90;;;;;;5064907;28;20242;-92
2022/10/08 11:30:58;;;;;;;5.40;3.90;;;19.50;99.90;;;;;;5073896;28;20175;-91
2022/10/08 11:33:25;;;;;;;5.00;3.28;;;19.50;99.90;;;;;;5060893;28;20176;-89
2022/10/08 11:36:18;;;;;;;11.90;4.90;;;19.50;99.90;;;;;;5057171;28;20198;-89
2022/10/08 11:38:47;;;;;;;7.47;4.00;;;19.60;99.90;;;;;;5037591;28;20278;-89
2022/10/08 11:41:26;;;;;;;4.07;3.20;;;19.70;99.90;;;;;;5045969;28;20547;-88
2022/10/08 11:43:59;;;;;;;5.72;2.90;;;19.70;99.90;;;;;;5091340;28;20218;-88
2022/10/08 11:46:35;;;;;;;5.35;3.63;;;19.60;99.90;;;;;;5076763;28;20274;-88
2022/10/08 11:49:13;;;;;;;5.32;3.83;;;19.60;99.90;;;;;;5094912;28;20175;-88
2022/10/08 11:51:39;;;;;;;5.05;2.83;;;19.60;99.90;;;;;;5064849;28;20195;-89
2022/10/08 11:54:30;;;;;;;5.03;3.22;;;19.50;99.90;;;;;;5041156;28;20179;-90
2022/10/08 11:57:17;;;;;;;5.53;3.28;;;19.60;99.90;;;;;;5042788;28;20207;-88
2022/10/08 11:59:47;;;;;;;6.90;3.33;;;19.60;99.90;;;;;;5077977;28;20194;-88
2022/10/08 12:02:28;;;;;;;5.82;3.13;;;19.60;99.90;;;;;;5060223;28;20184;-89
2022/10/08 12:05:14;;;;;;;5.97;3.78;;;19.60;99.90;;;;;;5071906;28;20211;-90
2022/10/08 12:07:47;;;;;;;10.20;4.50;;;19.70;99.90;;;;;;5049341;28;20271;-88
2022/10/08 12:10:18;;;;;;;9.00;3.53;;;20.00;99.90;;;;;;5043032;28;20184;-87
2022/10/08 12:12:55;;;;;;;5.43;3.38;;;20.30;99.90;;;;;;5055662;28;20201;-89
2022/10/08 12:15:23;;;;;;;4.60;3.17;;;20.30;99.90;;;;;;5074310;28;20184;-89
2022/10/08 12:17:57;;;;;;;7.05;3.40;;;20.30;99.90;;;;;;5059162;28;20199;-88
2022/10/08 12:20:33;;;;;;;5.45;3.55;;;20.20;99.90;;;;;;5075579;28;20298;-89
2022/10/08 12:23:19;;;;;;;4.22;2.75;;;20.00;99.90;;;;;;5035735;28;20183;-88
2022/10/08 12:25:44;;;;;;;4.82;3.35;;;20.00;99.90;;;;;;5039083;28;20720;-87
2022/10/08 12:28:19;;;;;;;7.43;3.30;;;19.90;99.90;;;;;;5055134;28;20187;-87
2022/10/08 12:30:49;;;;;;;7.00;3.40;;;20.00;99.90;;;;;;5056950;28;20642;-88
2022/10/08 12:33:15;;;;;;;6.53;3.20;;;20.00;99.90;;;;;;5073523;28;20214;-88
2022/10/08 12:36:12;;;;;;;10.82;6.90;;;20.30;99.90;;;;;;5073002;28;20211;-88
2022/10/08 12:38:50;;;;;;;4.97;3.03;;;20.50;99.90;;;;;;5053369;28;20265;-92
2022/10/08 12:41:23;;;;;;;6.13;3.50;;;20.50;99.90;;;;;;5071302;28;20238;-89
2022/10/08 12:44:04;;;;;;;7.55;3.50;;;20.60;99.90;;;;;;5073590;28;20191;-88
2022/10/08 12:46:38;;;;;;;4.47;3.28;;;20.70;99.90;;;;;;5073108;28;20235;-88
2022/10/08 12:49:16;;;;;;;10.90;5.38;;;20.90;99.90;;;;;;5066907;28;20178;-89
2022/10/08 12:51:45;;;;;;;5.88;2.95;;;21.10;99.90;;;;;;5055441;28;20186;-88
2022/10/08 12:54:20;;;;;;;5.80;3.28;;;21.20;99.90;;;;;;5072945;28;20183;-88
2022/10/08 12:56:47;;;;;;;5.93;3.38;;;21.50;99.90;;;;;;5054947;28;20189;-87
2022/10/08 12:59:13;;;;;;;6.43;3.58;;;22.10;99.90;;;;;;5073032;28;20171;-88
2022/10/08 13:01:43;;;;;;;7.70;3.45;;;22.60;99.90;;;;;;5072640;28;20210;-87
2022/10/08 13:04:18;;;;;;;3.95;2.92;;;22.70;99.90;;;;;;5054482;28;20175;-88
2022/10/08 13:06:44;;;;;;;5.35;3.33;;;23.10;99.90;;;;;;5072842;28;20214;-88
2022/10/08 13:09:32;;;;;;;9.32;5.70;;;23.10;99.90;;;;;;5038526;28;20171;-87
2022/10/08 13:12:04;;;;;;;5.43;3.03;;;23.40;99.90;;;;;;5054230;28;20199;-87
2022/10/08 13:14:35;;;;;;;4.80;3.28;;;23.50;99.90;;;;;;5054457;28;20526;-90
2022/10/08 13:17:01;;;;;;;6.07;3.88;;;23.80;99.90;;;;;;5053903;28;20642;-88
2022/10/08 13:19:35;;;;;;;4.78;3.63;;;23.80;99.90;;;;;;5072135;28;20190;-89
2022/10/08 13:22:19;;;;;;;6.53;3.90;;;23.50;99.90;;;;;;5052345;28;20190;-88
2022/10/08 13:24:45;;;;;;;5.07;3.15;;;23.40;99.90;;;;;;5068136;28;20198;-88
2022/10/08 13:27:26;;;;;;;5.03;3.40;;;23.10;99.90;;;;;;5053816;28;20207;-88
2022/10/08 13:29:53;;;;;;;6.53;3.05;;;23.40;99.90;;;;;;5072197;28;20189;-88
2022/10/08 13:32:38;;;;;;;6.45;3.97;;;23.50;99.40;;;;;;5054663;28;20185;-88